sensor_id;sensor_type;location;lat;lon;timestamp;P1;durP1;ratioP1;P2;durP2;ratioP2
21681;SDS011;11002;48.256;10.084;2024-01-10T00:02:17;20.10;;;10.13;;
21681;SDS011;11002;48.256;10.084;2024-01-10T00:04:44;31.90;;;11.82;;
21681;SDS011;11002;48.256;10.084;2024-01-10T00:07:12;24.58;;;11.68;;
21681;SDS011;11002;48.256;10.084;2024-01-10T00:09:39;22.63;;;10.85;;
21681;SDS011;11002;48.256;10.084;2024-01-10T00:12:08;28.23;;;10.55;;
21681;SDS011;11002;48.256;10.084;2024-01-10T00:14:35;22.35;;;10.55;;
21681;SDS011;11002;48.256;10.084;2024-01-10T00:17:02;23.33;;;10.75;;
21681;SDS011;11002;48.256;10.084;2024-01-10T00:19:30;24.02;;;9.98;;
21681;SDS011;11002;48.256;10.084;2024-01-10T00:21:59;22.20;;;10.00;;
21681;SDS011;11002;48.256;10.084;2024-01-10T00:24:26;27.52;;;11.65;;
21681;SDS011;11002;48.256;10.084;2024-01-10T00:26:53;23.45;;;11.48;;
21681;SDS011;11002;48.256;10.084;2024-01-10T00:29:22;24.42;;;11.80;;
21681;SDS011;11002;48.256;10.084;2024-01-10T00:31:49;28.10;;;12.02;;
21681;SDS011;11002;48.256;10.084;2024-01-10T00:34:18;23.25;;;11.02;;
21681;SDS011;11002;48.256;10.084;2024-01-10T00:36:45;21.73;;;11.32;;
21681;SDS011;11002;48.256;10.084;2024-01-10T00:39:12;29.60;;;12.05;;
21681;SDS011;11002;48.256;10.084;2024-01-10T00:41:41;28.67;;;12.38;;
21681;SDS011;11002;48.256;10.084;2024-01-10T00:44:08;22.10;;;10.45;;
21681;SDS011;11002;48.256;10.084;2024-01-10T00:46:36;30.55;;;12.35;;
21681;SDS011;11002;48.256;10.084;2024-01-10T00:49:04;26.48;;;11.68;;
21681;SDS011;11002;48.256;10.084;2024-01-10T00:51:31;35.10;;;12.27;;
21681;SDS011;11002;48.256;10.084;2024-01-10T00:53:59;23.15;;;11.57;;
21681;SDS011;11002;48.256;10.084;2024-01-10T00:56:26;26.60;;;10.85;;
21681;SDS011;11002;48.256;10.084;2024-01-10T00:58:53;21.17;;;10.60;;
21681;SDS011;11002;48.256;10.084;2024-01-10T01:01:23;22.98;;;10.55;;
21681;SDS011;11002;48.256;10.084;2024-01-10T01:03:52;25.50;;;11.95;;
21681;SDS011;11002;48.256;10.084;2024-01-10T01:06:19;24.88;;;12.13;;
21681;SDS011;11002;48.256;10.084;2024-01-10T01:08:47;26.30;;;10.50;;
21681;SDS011;11002;48.256;10.084;2024-01-10T01:11:14;25.23;;;11.32;;
21681;SDS011;11002;48.256;10.084;2024-01-10T01:13:41;24.65;;;11.45;;
21681;SDS011;11002;48.256;10.084;2024-01-10T01:16:09;21.83;;;11.50;;
21681;SDS011;11002;48.256;10.084;2024-01-10T01:18:36;23.80;;;11.75;;
21681;SDS011;11002;48.256;10.084;2024-01-10T01:21:05;25.48;;;11.38;;
21681;SDS011;11002;48.256;10.084;2024-01-10T01:23:32;23.58;;;11.82;;
21681;SDS011;11002;48.256;10.084;2024-01-10T01:25:59;23.30;;;11.18;;
21681;SDS011;11002;48.256;10.084;2024-01-10T01:28:26;32.92;;;13.10;;
21681;SDS011;11002;48.256;10.084;2024-01-10T01:30:54;25.50;;;11.52;;
21681;SDS011;11002;48.256;10.084;2024-01-10T01:33:21;20.83;;;11.40;;
21681;SDS011;11002;48.256;10.084;2024-01-10T01:35:48;25.13;;;11.60;;
21681;SDS011;11002;48.256;10.084;2024-01-10T01:38:17;29.05;;;11.95;;
21681;SDS011;11002;48.256;10.084;2024-01-10T01:40:44;27.23;;;11.38;;
21681;SDS011;11002;48.256;10.084;2024-01-10T01:43:18;26.85;;;12.07;;
21681;SDS011;11002;48.256;10.084;2024-01-10T01:45:47;29.38;;;13.65;;
21681;SDS011;11002;48.256;10.084;2024-01-10T01:48:16;26.10;;;12.27;;
21681;SDS011;11002;48.256;10.084;2024-01-10T01:50:44;22.50;;;11.32;;
21681;SDS011;11002;48.256;10.084;2024-01-10T01:53:12;25.58;;;11.55;;
21681;SDS011;11002;48.256;10.084;2024-01-10T01:55:41;27.25;;;11.20;;
21681;SDS011;11002;48.256;10.084;2024-01-10T01:58:10;20.90;;;9.77;;
21681;SDS011;11002;48.256;10.084;2024-01-10T02:00:38;21.02;;;10.05;;
21681;SDS011;11002;48.256;10.084;2024-01-10T02:03:05;22.23;;;10.57;;
21681;SDS011;11002;48.256;10.084;2024-01-10T02:05:35;25.17;;;10.60;;
21681;SDS011;11002;48.256;10.084;2024-01-10T02:08:02;24.75;;;11.00;;
21681;SDS011;11002;48.256;10.084;2024-01-10T02:10:29;29.60;;;12.68;;
21681;SDS011;11002;48.256;10.084;2024-01-10T02:12:58;33.28;;;12.90;;
21681;SDS011;11002;48.256;10.084;2024-01-10T02:15:25;23.38;;;10.63;;
21681;SDS011;11002;48.256;10.084;2024-01-10T02:17:53;27.27;;;11.23;;
21681;SDS011;11002;48.256;10.084;2024-01-10T02:20:20;27.80;;;11.70;;
21681;SDS011;11002;48.256;10.084;2024-01-10T02:22:48;26.70;;;12.18;;
21681;SDS011;11002;48.256;10.084;2024-01-10T02:25:17;24.10;;;10.73;;
21681;SDS011;11002;48.256;10.084;2024-01-10T02:27:45;24.17;;;10.65;;
21681;SDS011;11002;48.256;10.084;2024-01-10T02:30:12;22.70;;;10.23;;
21681;SDS011;11002;48.256;10.084;2024-01-10T02:32:39;23.92;;;11.27;;
21681;SDS011;11002;48.256;10.084;2024-01-10T02:35:07;18.67;;;9.27;;
21681;SDS011;11002;48.256;10.084;2024-01-10T02:37:34;28.02;;;11.20;;
21681;SDS011;11002;48.256;10.084;2024-01-10T02:40:02;26.08;;;10.80;;
21681;SDS011;11002;48.256;10.084;2024-01-10T02:42:31;25.45;;;10.68;;
21681;SDS011;11002;48.256;10.084;2024-01-10T02:44:58;29.83;;;11.95;;
21681;SDS011;11002;48.256;10.084;2024-01-10T02:47:26;22.60;;;9.93;;
21681;SDS011;11002;48.256;10.084;2024-01-10T02:49:54;25.60;;;10.13;;
21681;SDS011;11002;48.256;10.084;2024-01-10T02:52:21;22.63;;;10.95;;
21681;SDS011;11002;48.256;10.084;2024-01-10T02:54:49;26.60;;;11.05;;
21681;SDS011;11002;48.256;10.084;2024-01-10T02:57:16;29.35;;;10.27;;
21681;SDS011;11002;48.256;10.084;2024-01-10T02:59:44;20.17;;;9.57;;
21681;SDS011;11002;48.256;10.084;2024-01-10T03:02:12;24.25;;;10.75;;
21681;SDS011;11002;48.256;10.084;2024-01-10T03:04:39;24.58;;;9.63;;
21681;SDS011;11002;48.256;10.084;2024-01-10T03:07:06;20.67;;;9.88;;
21681;SDS011;11002;48.256;10.084;2024-01-10T03:09:33;28.73;;;11.55;;
21681;SDS011;11002;48.256;10.084;2024-01-10T03:12:00;24.52;;;10.55;;
21681;SDS011;11002;48.256;10.084;2024-01-10T03:14:28;22.73;;;9.10;;
21681;SDS011;11002;48.256;10.084;2024-01-10T03:16:56;22.67;;;10.15;;
21681;SDS011;11002;48.256;10.084;2024-01-10T03:19:23;23.17;;;9.95;;
21681;SDS011;11002;48.256;10.084;2024-01-10T03:21:51;22.67;;;10.50;;
21681;SDS011;11002;48.256;10.084;2024-01-10T03:24:18;21.98;;;9.68;;
21681;SDS011;11002;48.256;10.084;2024-01-10T03:26:45;20.83;;;9.60;;
21681;SDS011;11002;48.256;10.084;2024-01-10T03:29:13;26.02;;;8.98;;
21681;SDS011;11002;48.256;10.084;2024-01-10T03:31:40;21.73;;;10.45;;
21681;SDS011;11002;48.256;10.084;2024-01-10T03:34:09;22.98;;;10.80;;
21681;SDS011;11002;48.256;10.084;2024-01-10T03:36:36;26.02;;;9.75;;
21681;SDS011;11002;48.256;10.084;2024-01-10T03:39:03;25.02;;;10.73;;
21681;SDS011;11002;48.256;10.084;2024-01-10T03:41:30;27.35;;;9.18;;
21681;SDS011;11002;48.256;10.084;2024-01-10T03:43:58;22.90;;;10.18;;
21681;SDS011;11002;48.256;10.084;2024-01-10T03:46:25;18.20;;;8.75;;
21681;SDS011;11002;48.256;10.084;2024-01-10T03:48:52;24.88;;;10.30;;
21681;SDS011;11002;48.256;10.084;2024-01-10T03:51:21;17.20;;;9.13;;
21681;SDS011;11002;48.256;10.084;2024-01-10T03:53:49;24.00;;;10.63;;
21681;SDS011;11002;48.256;10.084;2024-01-10T03:56:16;18.52;;;7.70;;
21681;SDS011;11002;48.256;10.084;2024-01-10T03:58:43;28.15;;;9.20;;
21681;SDS011;11002;48.256;10.084;2024-01-10T04:01:14;18.13;;;8.85;;
21681;SDS011;11002;48.256;10.084;2024-01-10T04:03:41;21.17;;;9.70;;
21681;SDS011;11002;48.256;10.084;2024-01-10T04:06:09;20.70;;;8.82;;
21681;SDS011;11002;48.256;10.084;2024-01-10T04:08:38;22.70;;;9.85;;
21681;SDS011;11002;48.256;10.084;2024-01-10T04:11:05;26.88;;;10.90;;
21681;SDS011;11002;48.256;10.084;2024-01-10T04:13:34;21.98;;;10.93;;
21681;SDS011;11002;48.256;10.084;2024-01-10T04:16:01;22.65;;;9.43;;
21681;SDS011;11002;48.256;10.084;2024-01-10T04:18:29;25.85;;;11.35;;
21681;SDS011;11002;48.256;10.084;2024-01-10T04:20:56;18.08;;;7.95;;
21681;SDS011;11002;48.256;10.084;2024-01-10T04:23:23;22.83;;;10.07;;
21681;SDS011;11002;48.256;10.084;2024-01-10T04:25:52;19.45;;;9.25;;
21681;SDS011;11002;48.256;10.084;2024-01-10T04:28:19;22.83;;;9.13;;
21681;SDS011;11002;48.256;10.084;2024-01-10T04:30:46;21.15;;;8.77;;
21681;SDS011;11002;48.256;10.084;2024-01-10T04:33:13;25.73;;;9.93;;
21681;SDS011;11002;48.256;10.084;2024-01-10T04:35:41;29.00;;;9.48;;
21681;SDS011;11002;48.256;10.084;2024-01-10T04:38:08;21.60;;;10.25;;
21681;SDS011;11002;48.256;10.084;2024-01-10T04:40:35;24.85;;;10.75;;
21681;SDS011;11002;48.256;10.084;2024-01-10T04:43:04;24.25;;;9.40;;
21681;SDS011;11002;48.256;10.084;2024-01-10T04:45:31;19.42;;;9.63;;
21681;SDS011;11002;48.256;10.084;2024-01-10T04:47:58;22.00;;;9.95;;
21681;SDS011;11002;48.256;10.084;2024-01-10T04:50:26;22.08;;;9.32;;
21681;SDS011;11002;48.256;10.084;2024-01-10T04:52:53;23.27;;;10.32;;
21681;SDS011;11002;48.256;10.084;2024-01-10T04:55:20;23.95;;;10.48;;
21681;SDS011;11002;48.256;10.084;2024-01-10T04:57:47;22.77;;;9.25;;
21681;SDS011;11002;48.256;10.084;2024-01-10T05:00:16;20.35;;;10.27;;
21681;SDS011;11002;48.256;10.084;2024-01-10T05:02:43;21.80;;;9.40;;
21681;SDS011;11002;48.256;10.084;2024-01-10T05:05:11;20.33;;;10.18;;
21681;SDS011;11002;48.256;10.084;2024-01-10T05:07:38;18.63;;;8.60;;
21681;SDS011;11002;48.256;10.084;2024-01-10T05:10:05;22.95;;;10.10;;
21681;SDS011;11002;48.256;10.084;2024-01-10T05:12:33;23.52;;;9.52;;
21681;SDS011;11002;48.256;10.084;2024-01-10T05:15:00;21.67;;;9.48;;
21681;SDS011;11002;48.256;10.084;2024-01-10T05:17:30;23.23;;;10.85;;
21681;SDS011;11002;48.256;10.084;2024-01-10T05:19:58;27.38;;;11.63;;
21681;SDS011;11002;48.256;10.084;2024-01-10T05:22:26;21.95;;;9.10;;
21681;SDS011;11002;48.256;10.084;2024-01-10T05:24:53;20.67;;;10.00;;
21681;SDS011;11002;48.256;10.084;2024-01-10T05:27:20;20.52;;;9.45;;
21681;SDS011;11002;48.256;10.084;2024-01-10T05:29:48;23.67;;;10.45;;
21681;SDS011;11002;48.256;10.084;2024-01-10T05:32:15;22.65;;;9.18;;
21681;SDS011;11002;48.256;10.084;2024-01-10T05:34:44;22.95;;;9.80;;
21681;SDS011;11002;48.256;10.084;2024-01-10T05:37:12;19.35;;;9.85;;
21681;SDS011;11002;48.256;10.084;2024-01-10T05:39:39;26.85;;;12.40;;
21681;SDS011;11002;48.256;10.084;2024-01-10T05:42:06;22.48;;;10.32;;
21681;SDS011;11002;48.256;10.084;2024-01-10T05:44:33;23.00;;;10.55;;
21681;SDS011;11002;48.256;10.084;2024-01-10T05:47:01;22.25;;;9.60;;
21681;SDS011;11002;48.256;10.084;2024-01-10T05:49:28;18.95;;;8.68;;
21681;SDS011;11002;48.256;10.084;2024-01-10T05:51:57;25.02;;;11.75;;
21681;SDS011;11002;48.256;10.084;2024-01-10T05:54:24;19.20;;;9.48;;
21681;SDS011;11002;48.256;10.084;2024-01-10T05:56:52;17.33;;;9.32;;
21681;SDS011;11002;48.256;10.084;2024-01-10T05:59:20;21.75;;;10.43;;
21681;SDS011;11002;48.256;10.084;2024-01-10T06:01:47;23.90;;;10.10;;
21681;SDS011;11002;48.256;10.084;2024-01-10T06:04:14;26.90;;;10.40;;
21681;SDS011;11002;48.256;10.084;2024-01-10T06:06:45;23.40;;;10.48;;
21681;SDS011;11002;48.256;10.084;2024-01-10T06:09:14;21.15;;;9.98;;
21681;SDS011;11002;48.256;10.084;2024-01-10T06:11:47;23.17;;;10.20;;
21681;SDS011;11002;48.256;10.084;2024-01-10T06:14:14;23.25;;;9.60;;
21681;SDS011;11002;48.256;10.084;2024-01-10T06:16:42;27.08;;;11.13;;
21681;SDS011;11002;48.256;10.084;2024-01-10T06:19:10;23.45;;;10.70;;
21681;SDS011;11002;48.256;10.084;2024-01-10T06:21:37;24.67;;;11.40;;
21681;SDS011;11002;48.256;10.084;2024-01-10T06:24:05;22.83;;;11.85;;
21681;SDS011;11002;48.256;10.084;2024-01-10T06:26:34;28.83;;;11.82;;
21681;SDS011;11002;48.256;10.084;2024-01-10T06:29:02;27.58;;;11.00;;
21681;SDS011;11002;48.256;10.084;2024-01-10T06:31:29;26.90;;;11.70;;
21681;SDS011;11002;48.256;10.084;2024-01-10T06:33:56;28.15;;;12.50;;
21681;SDS011;11002;48.256;10.084;2024-01-10T06:36:23;23.17;;;10.82;;
21681;SDS011;11002;48.256;10.084;2024-01-10T06:38:51;23.98;;;11.30;;
21681;SDS011;11002;48.256;10.084;2024-01-10T06:41:20;30.38;;;11.73;;
21681;SDS011;11002;48.256;10.084;2024-01-10T06:43:51;25.50;;;11.23;;
21681;SDS011;11002;48.256;10.084;2024-01-10T06:46:19;19.50;;;9.60;;
21681;SDS011;11002;48.256;10.084;2024-01-10T06:48:46;25.33;;;9.52;;
21681;SDS011;11002;48.256;10.084;2024-01-10T06:51:14;24.77;;;10.55;;
21681;SDS011;11002;48.256;10.084;2024-01-10T06:53:42;28.70;;;10.98;;
21681;SDS011;11002;48.256;10.084;2024-01-10T06:56:10;24.17;;;10.65;;
21681;SDS011;11002;48.256;10.084;2024-01-10T06:58:38;24.27;;;11.90;;
21681;SDS011;11002;48.256;10.084;2024-01-10T07:01:12;29.83;;;12.40;;
21681;SDS011;11002;48.256;10.084;2024-01-10T07:03:39;26.35;;;12.10;;
21681;SDS011;11002;48.256;10.084;2024-01-10T07:06:07;30.35;;;12.05;;
21681;SDS011;11002;48.256;10.084;2024-01-10T07:08:34;23.73;;;11.00;;
21681;SDS011;11002;48.256;10.084;2024-01-10T07:11:01;28.80;;;12.02;;
21681;SDS011;11002;48.256;10.084;2024-01-10T07:13:28;28.02;;;12.10;;
21681;SDS011;11002;48.256;10.084;2024-01-10T07:15:56;29.33;;;12.20;;
21681;SDS011;11002;48.256;10.084;2024-01-10T07:18:29;20.48;;;10.32;;
21681;SDS011;11002;48.256;10.084;2024-01-10T07:20:56;25.30;;;10.73;;
21681;SDS011;11002;48.256;10.084;2024-01-10T07:23:24;24.55;;;10.80;;
21681;SDS011;11002;48.256;10.084;2024-01-10T07:25:52;29.90;;;12.07;;
21681;SDS011;11002;48.256;10.084;2024-01-10T07:28:19;26.08;;;11.23;;
21681;SDS011;11002;48.256;10.084;2024-01-10T07:30:47;28.50;;;11.27;;
21681;SDS011;11002;48.256;10.084;2024-01-10T07:33:14;33.38;;;12.88;;
21681;SDS011;11002;48.256;10.084;2024-01-10T07:35:43;22.92;;;10.80;;
21681;SDS011;11002;48.256;10.084;2024-01-10T07:38:10;27.38;;;12.68;;
21681;SDS011;11002;48.256;10.084;2024-01-10T07:40:37;29.02;;;11.60;;
21681;SDS011;11002;48.256;10.084;2024-01-10T07:43:04;23.65;;;10.95;;
21681;SDS011;11002;48.256;10.084;2024-01-10T07:45:32;27.80;;;10.95;;
21681;SDS011;11002;48.256;10.084;2024-01-10T07:47:59;26.60;;;11.38;;
21681;SDS011;11002;48.256;10.084;2024-01-10T07:50:26;24.67;;;11.45;;
21681;SDS011;11002;48.256;10.084;2024-01-10T07:52:55;25.88;;;11.93;;
21681;SDS011;11002;48.256;10.084;2024-01-10T07:55:22;29.70;;;11.38;;
21681;SDS011;11002;48.256;10.084;2024-01-10T07:57:49;26.05;;;11.52;;
21681;SDS011;11002;48.256;10.084;2024-01-10T08:00:17;23.70;;;11.55;;
21681;SDS011;11002;48.256;10.084;2024-01-10T08:02:45;30.52;;;12.02;;
21681;SDS011;11002;48.256;10.084;2024-01-10T08:05:14;35.83;;;13.15;;
21681;SDS011;11002;48.256;10.084;2024-01-10T08:07:41;30.08;;;12.43;;
21681;SDS011;11002;48.256;10.084;2024-01-10T08:10:10;34.55;;;12.82;;
21681;SDS011;11002;48.256;10.084;2024-01-10T08:12:38;30.63;;;12.55;;
21681;SDS011;11002;48.256;10.084;2024-01-10T08:15:07;24.23;;;12.05;;
21681;SDS011;11002;48.256;10.084;2024-01-10T08:17:35;26.75;;;10.85;;
21681;SDS011;11002;48.256;10.084;2024-01-10T08:20:03;31.52;;;12.27;;
21681;SDS011;11002;48.256;10.084;2024-01-10T08:22:31;31.88;;;12.95;;
21681;SDS011;11002;48.256;10.084;2024-01-10T08:24:59;26.40;;;12.52;;
21681;SDS011;11002;48.256;10.084;2024-01-10T08:27:27;25.38;;;12.75;;
21681;SDS011;11002;48.256;10.084;2024-01-10T08:29:54;25.88;;;12.30;;
21681;SDS011;11002;48.256;10.084;2024-01-10T08:32:22;26.20;;;12.10;;
21681;SDS011;11002;48.256;10.084;2024-01-10T08:34:49;27.20;;;11.93;;
21681;SDS011;11002;48.256;10.084;2024-01-10T08:37:16;25.58;;;11.63;;
21681;SDS011;11002;48.256;10.084;2024-01-10T08:39:44;24.95;;;11.77;;
21681;SDS011;11002;48.256;10.084;2024-01-10T08:42:11;30.13;;;12.65;;
21681;SDS011;11002;48.256;10.084;2024-01-10T08:44:39;28.75;;;11.93;;
21681;SDS011;11002;48.256;10.084;2024-01-10T08:47:07;26.42;;;11.80;;
21681;SDS011;11002;48.256;10.084;2024-01-10T08:49:34;34.88;;;12.93;;
21681;SDS011;11002;48.256;10.084;2024-01-10T08:52:03;26.55;;;12.00;;
21681;SDS011;11002;48.256;10.084;2024-01-10T08:54:31;29.50;;;12.43;;
21681;SDS011;11002;48.256;10.084;2024-01-10T08:56:59;30.52;;;12.27;;
21681;SDS011;11002;48.256;10.084;2024-01-10T08:59:26;30.95;;;12.93;;
21681;SDS011;11002;48.256;10.084;2024-01-10T09:01:55;27.35;;;12.05;;
21681;SDS011;11002;48.256;10.084;2024-01-10T09:04:22;27.00;;;11.82;;
21681;SDS011;11002;48.256;10.084;2024-01-10T09:06:51;27.30;;;11.35;;
21681;SDS011;11002;48.256;10.084;2024-01-10T09:09:18;26.00;;;12.93;;
21681;SDS011;11002;48.256;10.084;2024-01-10T09:11:46;31.30;;;12.88;;
21681;SDS011;11002;48.256;10.084;2024-01-10T09:14:14;32.53;;;13.30;;
21681;SDS011;11002;48.256;10.084;2024-01-10T09:16:41;29.35;;;11.85;;
21681;SDS011;11002;48.256;10.084;2024-01-10T09:19:10;25.38;;;11.43;;
21681;SDS011;11002;48.256;10.084;2024-01-10T09:21:37;25.63;;;12.13;;
21681;SDS011;11002;48.256;10.084;2024-01-10T09:24:04;31.75;;;12.80;;
21681;SDS011;11002;48.256;10.084;2024-01-10T09:26:34;24.67;;;11.82;;
21681;SDS011;11002;48.256;10.084;2024-01-10T09:29:02;27.88;;;12.73;;
21681;SDS011;11002;48.256;10.084;2024-01-10T09:31:29;24.25;;;11.60;;
21681;SDS011;11002;48.256;10.084;2024-01-10T09:33:56;31.02;;;12.25;;
21681;SDS011;11002;48.256;10.084;2024-01-10T09:36:25;25.67;;;11.95;;
21681;SDS011;11002;48.256;10.084;2024-01-10T09:38:52;34.63;;;13.38;;
21681;SDS011;11002;48.256;10.084;2024-01-10T09:41:20;27.10;;;12.07;;
21681;SDS011;11002;48.256;10.084;2024-01-10T09:43:48;28.23;;;12.65;;
21681;SDS011;11002;48.256;10.084;2024-01-10T09:46:15;31.65;;;13.18;;
21681;SDS011;11002;48.256;10.084;2024-01-10T09:48:44;24.55;;;12.48;;
21681;SDS011;11002;48.256;10.084;2024-01-10T09:51:12;29.77;;;12.85;;
21681;SDS011;11002;48.256;10.084;2024-01-10T09:53:42;31.13;;;11.85;;
21681;SDS011;11002;48.256;10.084;2024-01-10T09:56:14;27.40;;;12.95;;
21681;SDS011;11002;48.256;10.084;2024-01-10T09:58:42;33.63;;;13.63;;
21681;SDS011;11002;48.256;10.084;2024-01-10T10:01:11;29.23;;;11.85;;
21681;SDS011;11002;48.256;10.084;2024-01-10T10:03:39;29.67;;;12.55;;
21681;SDS011;11002;48.256;10.084;2024-01-10T10:06:11;34.50;;;12.98;;
21681;SDS011;11002;48.256;10.084;2024-01-10T10:08:39;28.88;;;12.45;;
21681;SDS011;11002;48.256;10.084;2024-01-10T10:11:11;35.50;;;13.38;;
21681;SDS011;11002;48.256;10.084;2024-01-10T10:13:39;34.20;;;14.85;;
21681;SDS011;11002;48.256;10.084;2024-01-10T10:16:07;34.13;;;14.13;;
21681;SDS011;11002;48.256;10.084;2024-01-10T10:18:38;33.47;;;13.18;;
21681;SDS011;11002;48.256;10.084;2024-01-10T10:21:09;35.72;;;13.63;;
21681;SDS011;11002;48.256;10.084;2024-01-10T10:23:37;29.75;;;13.68;;
21681;SDS011;11002;48.256;10.084;2024-01-10T10:26:14;31.92;;;12.57;;
21681;SDS011;11002;48.256;10.084;2024-01-10T10:28:45;24.10;;;11.68;;
21681;SDS011;11002;48.256;10.084;2024-01-10T10:31:13;25.98;;;13.82;;
21681;SDS011;11002;48.256;10.084;2024-01-10T10:33:42;37.97;;;13.25;;
21681;SDS011;11002;48.256;10.084;2024-01-10T10:36:09;32.65;;;14.15;;
21681;SDS011;11002;48.256;10.084;2024-01-10T10:38:37;31.88;;;12.70;;
21681;SDS011;11002;48.256;10.084;2024-01-10T10:41:04;26.98;;;12.65;;
21681;SDS011;11002;48.256;10.084;2024-01-10T10:43:37;32.70;;;12.68;;
21681;SDS011;11002;48.256;10.084;2024-01-10T10:46:05;29.98;;;13.35;;
21681;SDS011;11002;48.256;10.084;2024-01-10T10:48:35;39.40;;;13.68;;
21681;SDS011;11002;48.256;10.084;2024-01-10T10:51:03;30.48;;;13.93;;
21681;SDS011;11002;48.256;10.084;2024-01-10T10:53:33;26.17;;;13.52;;
21681;SDS011;11002;48.256;10.084;2024-01-10T10:56:02;28.35;;;12.68;;
21681;SDS011;11002;48.256;10.084;2024-01-10T10:58:34;24.08;;;12.25;;
21681;SDS011;11002;48.256;10.084;2024-01-10T11:01:06;31.33;;;12.98;;
21681;SDS011;11002;48.256;10.084;2024-01-10T11:03:35;31.17;;;11.82;;
21681;SDS011;11002;48.256;10.084;2024-01-10T11:06:03;28.98;;;14.18;;
21681;SDS011;11002;48.256;10.084;2024-01-10T11:08:33;32.45;;;13.07;;
21681;SDS011;11002;48.256;10.084;2024-01-10T11:11:02;33.10;;;13.60;;
21681;SDS011;11002;48.256;10.084;2024-01-10T11:13:43;33.63;;;13.25;;
21681;SDS011;11002;48.256;10.084;2024-01-10T11:19:26;29.27;;;13.20;;
21681;SDS011;11002;48.256;10.084;2024-01-10T11:22:31;24.83;;;11.93;;
21681;SDS011;11002;48.256;10.084;2024-01-10T11:25:08;30.83;;;13.03;;
21681;SDS011;11002;48.256;10.084;2024-01-10T11:27:36;27.83;;;12.20;;
21681;SDS011;11002;48.256;10.084;2024-01-10T11:30:05;33.47;;;13.88;;
21681;SDS011;11002;48.256;10.084;2024-01-10T11:32:34;27.48;;;13.05;;
21681;SDS011;11002;48.256;10.084;2024-01-10T11:35:04;32.65;;;12.63;;
21681;SDS011;11002;48.256;10.084;2024-01-10T11:37:42;33.72;;;13.48;;
21681;SDS011;11002;48.256;10.084;2024-01-10T11:40:11;25.30;;;11.45;;
21681;SDS011;11002;48.256;10.084;2024-01-10T11:42:40;28.98;;;14.10;;
21681;SDS011;11002;48.256;10.084;2024-01-10T11:45:11;27.20;;;12.68;;
21681;SDS011;11002;48.256;10.084;2024-01-10T11:48:00;28.70;;;13.50;;
21681;SDS011;11002;48.256;10.084;2024-01-10T11:50:27;35.42;;;16.40;;
21681;SDS011;11002;48.256;10.084;2024-01-10T11:52:56;32.28;;;15.07;;
21681;SDS011;11002;48.256;10.084;2024-01-10T11:58:13;28.73;;;14.13;;
21681;SDS011;11002;48.256;10.084;2024-01-10T12:00:42;30.88;;;13.57;;
21681;SDS011;11002;48.256;10.084;2024-01-10T12:03:09;32.45;;;14.98;;
21681;SDS011;11002;48.256;10.084;2024-01-10T12:05:38;32.88;;;15.90;;
21681;SDS011;11002;48.256;10.084;2024-01-10T12:08:05;32.33;;;14.68;;
21681;SDS011;11002;48.256;10.084;2024-01-10T12:10:46;36.05;;;15.00;;
21681;SDS011;11002;48.256;10.084;2024-01-10T12:13:16;28.88;;;14.50;;
21681;SDS011;11002;48.256;10.084;2024-01-10T12:15:46;32.85;;;14.60;;
21681;SDS011;11002;48.256;10.084;2024-01-10T12:18:14;33.70;;;14.98;;
21681;SDS011;11002;48.256;10.084;2024-01-10T12:20:41;35.70;;;15.50;;
21681;SDS011;11002;48.256;10.084;2024-01-10T12:23:10;29.05;;;13.88;;
21681;SDS011;11002;48.256;10.084;2024-01-10T12:25:37;35.67;;;16.48;;
21681;SDS011;11002;48.256;10.084;2024-01-10T12:28:05;31.80;;;15.43;;
21681;SDS011;11002;48.256;10.084;2024-01-10T12:30:33;33.90;;;15.18;;
21681;SDS011;11002;48.256;10.084;2024-01-10T12:33:04;33.58;;;16.27;;
21681;SDS011;11002;48.256;10.084;2024-01-10T12:35:31;33.53;;;15.05;;
21681;SDS011;11002;48.256;10.084;2024-01-10T12:37:58;30.33;;;13.93;;
21681;SDS011;11002;48.256;10.084;2024-01-10T12:40:27;31.75;;;13.52;;
21681;SDS011;11002;48.256;10.084;2024-01-10T12:43:01;28.40;;;11.95;;
21681;SDS011;11002;48.256;10.084;2024-01-10T12:45:29;33.67;;;14.45;;
21681;SDS011;11002;48.256;10.084;2024-01-10T12:47:57;30.33;;;13.23;;
21681;SDS011;11002;48.256;10.084;2024-01-10T12:50:25;32.05;;;13.02;;
21681;SDS011;11002;48.256;10.084;2024-01-10T12:52:52;24.02;;;12.68;;
21681;SDS011;11002;48.256;10.084;2024-01-10T12:55:20;30.02;;;13.80;;
21681;SDS011;11002;48.256;10.084;2024-01-10T12:57:47;36.05;;;14.65;;
21681;SDS011;11002;48.256;10.084;2024-01-10T13:00:15;29.13;;;13.00;;
21681;SDS011;11002;48.256;10.084;2024-01-10T13:02:43;27.42;;;14.35;;
21681;SDS011;11002;48.256;10.084;2024-01-10T13:05:11;31.25;;;13.73;;
21681;SDS011;11002;48.256;10.084;2024-01-10T13:07:41;29.30;;;14.35;;
21681;SDS011;11002;48.256;10.084;2024-01-10T13:10:09;28.67;;;13.57;;
21681;SDS011;11002;48.256;10.084;2024-01-10T13:12:37;30.48;;;13.70;;
21681;SDS011;11002;48.256;10.084;2024-01-10T13:15:05;33.83;;;13.98;;
21681;SDS011;11002;48.256;10.084;2024-01-10T13:17:33;28.92;;;13.73;;
21681;SDS011;11002;48.256;10.084;2024-01-10T13:20:00;30.50;;;13.45;;
21681;SDS011;11002;48.256;10.084;2024-01-10T13:22:28;30.10;;;14.07;;
21681;SDS011;11002;48.256;10.084;2024-01-10T13:24:57;29.00;;;13.52;;
21681;SDS011;11002;48.256;10.084;2024-01-10T13:27:24;29.10;;;12.43;;
21681;SDS011;11002;48.256;10.084;2024-01-10T13:29:52;32.00;;;13.32;;
21681;SDS011;11002;48.256;10.084;2024-01-10T13:32:19;27.50;;;11.20;;
21681;SDS011;11002;48.256;10.084;2024-01-10T13:34:47;29.15;;;12.63;;
21681;SDS011;11002;48.256;10.084;2024-01-10T13:37:14;19.55;;;9.55;;
21681;SDS011;11002;48.256;10.084;2024-01-10T13:39:41;20.25;;;9.77;;
21681;SDS011;11002;48.256;10.084;2024-01-10T13:42:13;17.88;;;8.50;;
21681;SDS011;11002;48.256;10.084;2024-01-10T13:44:44;16.70;;;8.80;;
21681;SDS011;11002;48.256;10.084;2024-01-10T13:47:11;18.45;;;8.85;;
21681;SDS011;11002;48.256;10.084;2024-01-10T13:49:39;19.58;;;9.27;;
21681;SDS011;11002;48.256;10.084;2024-01-10T13:52:07;26.58;;;10.98;;
21681;SDS011;11002;48.256;10.084;2024-01-10T13:54:34;25.55;;;10.38;;
21681;SDS011;11002;48.256;10.084;2024-01-10T13:57:03;20.15;;;7.72;;
21681;SDS011;11002;48.256;10.084;2024-01-10T13:59:32;19.60;;;8.73;;
21681;SDS011;11002;48.256;10.084;2024-01-10T14:01:59;17.98;;;8.07;;
21681;SDS011;11002;48.256;10.084;2024-01-10T14:04:27;17.30;;;8.50;;
21681;SDS011;11002;48.256;10.084;2024-01-10T14:06:54;23.80;;;10.85;;
21681;SDS011;11002;48.256;10.084;2024-01-10T14:09:22;26.17;;;11.85;;
21681;SDS011;11002;48.256;10.084;2024-01-10T14:11:50;30.20;;;13.85;;
21681;SDS011;11002;48.256;10.084;2024-01-10T14:14:17;31.95;;;13.60;;
21681;SDS011;11002;48.256;10.084;2024-01-10T14:16:46;27.98;;;11.77;;
21681;SDS011;11002;48.256;10.084;2024-01-10T14:19:13;21.02;;;9.77;;
21681;SDS011;11002;48.256;10.084;2024-01-10T14:21:42;23.50;;;9.98;;
21681;SDS011;11002;48.256;10.084;2024-01-10T14:24:11;25.63;;;11.85;;